Time;durP1;ratioP1;P1;durP2;ratioP2;P2;SDS_P1;SDS_P2;PMS_P1;PMS_P2;Temp;Humidity;BMP_temperature;BMP_pressure;BME280_temperature;BME280_humidity;BME280_pressure;Samples;Min_cycle;Max_cycle;Signal;HPM_P1;HPM_P2
2022/07/29 00:01:03;;;;;;;3.40;1.98;;;17.60;99.90;;;16.98;100.00;97521.06;5069020;28;20749;-65
2022/07/29 00:03:30;;;;;;;4.63;2.20;;;17.60;99.90;;;16.92;100.00;97515.31;5066944;28;20152;-65
2022/07/29 00:05:57;;;;;;;4.13;1.85;;;17.60;99.90;;;16.83;100.00;97512.47;5069895;28;20052;-65
2022/07/29 00:08:26;;;;;;;3.13;1.98;;;17.60;99.90;;;16.86;100.00;97510.50;5059428;28;20048;-65
2022/07/29 00:10:55;;;;;;;3.40;2.20;;;17.50;99.90;;;16.84;100.00;97517.63;5068428;28;20052;-65
2022/07/29 00:13:22;;;;;;;4.32;2.30;;;17.50;99.90;;;16.83;100.00;97505.47;5069354;28;20139;-66
2022/07/29 00:15:59;;;;;;;3.17;1.63;;;17.50;99.90;;;16.93;100.00;97495.19;5067977;28;20048;-65
2022/07/29 00:18:31;;;;;;;3.40;2.13;;;17.60;99.90;;;16.94;100.00;97481.09;5067085;28;20503;-65
2022/07/29 00:20:59;;;;;;;3.85;2.08;;;17.60;99.90;;;16.83;100.00;97491.50;5070618;28;20416;-65
2022/07/29 00:23:26;;;;;;;4.53;1.88;;;17.60;99.90;;;16.77;100.00;97491.91;5067234;28;20131;-65
2022/07/29 00:25:53;;;;;;;3.25;1.92;;;17.50;99.90;;;16.65;100.00;97496.19;5071568;28;20052;-65
2022/07/29 00:28:20;;;;;;;4.20;2.00;;;17.40;99.90;;;16.74;100.00;97495.59;5071870;28;20040;-65
2022/07/29 00:30:47;;;;;;;3.58;1.70;;;17.40;99.90;;;16.61;100.00;97495.59;5053734;28;20123;-65
2022/07/29 00:33:14;;;;;;;3.50;1.95;;;17.40;99.90;;;16.62;100.00;97491.16;5067534;28;20127;-65
2022/07/29 00:35:43;;;;;;;6.32;1.88;;;17.40;99.90;;;16.64;100.00;97497.97;5065893;28;20425;-65
2022/07/29 00:38:15;;;;;;;4.00;2.45;;;17.30;99.90;;;16.61;100.00;97492.13;5065905;28;20048;-65
2022/07/29 00:40:44;;;;;;;6.25;2.03;;;17.30;99.90;;;16.55;100.00;97487.31;5068128;28;20144;-65
2022/07/29 00:43:13;;;;;;;3.78;2.20;;;17.30;99.90;;;16.45;100.00;97492.34;5070962;28;20162;-65
2022/07/29 00:45:41;;;;;;;3.08;1.60;;;17.20;99.90;;;16.57;100.00;97488.03;5073256;28;20122;-65
2022/07/29 00:48:09;;;;;;;5.18;2.00;;;17.20;99.90;;;16.54;100.00;97478.59;5074343;28;20083;-65
2022/07/29 00:50:37;;;;;;;3.20;1.67;;;17.20;99.90;;;16.50;100.00;97477.97;5072261;28;20083;-65
2022/07/29 00:53:06;;;;;;;4.97;2.17;;;17.20;99.90;;;16.54;100.00;97470.75;5072988;28;20134;-64
2022/07/29 00:55:35;;;;;;;4.25;2.20;;;17.20;99.90;;;16.54;100.00;97475.16;5061028;28;20127;-64
2022/07/29 00:58:02;;;;;;;3.20;1.85;;;17.20;99.90;;;16.38;100.00;97481.44;5072681;28;20040;-64
2022/07/29 01:00:30;;;;;;;3.22;1.75;;;17.10;99.90;;;16.38;100.00;97481.44;5074246;28;20914;-65
2022/07/29 01:02:57;;;;;;;3.88;1.83;;;17.10;99.90;;;16.39;100.00;97477.03;5074339;28;20566;-65
2022/07/29 01:05:28;;;;;;;5.00;2.00;;;17.00;99.90;;;16.23;100.00;97471.97;5074451;28;20058;-65
2022/07/29 01:08:17;;;;;;;3.83;2.13;;;17.00;99.90;;;16.27;100.00;97479.53;5075877;28;20060;-64
2022/07/29 01:10:46;;;;;;;4.50;1.48;;;16.90;99.90;;;16.42;100.00;97466.31;5057886;28;20052;-64
2022/07/29 01:13:15;;;;;;;4.20;2.45;;;17.00;99.90;;;16.44;100.00;97456.59;5076830;28;20051;-65
2022/07/29 01:15:59;;;;;;;3.90;1.85;;;17.00;99.90;;;16.39;100.00;97456.06;5058731;28;20127;-65
2022/07/29 01:18:37;;;;;;;7.72;2.33;;;17.00;99.90;;;16.38;100.00;97450.00;5064546;28;20052;-65
2022/07/29 01:21:36;;;;;;;5.05;2.03;;;17.00;99.90;;;16.27;100.00;97445.47;5059453;28;20416;-65
2022/07/29 01:24:49;;;;;;;5.53;2.30;;;17.00;99.90;;;16.23;100.00;97446.63;5057313;28;20043;-64
2022/07/29 01:27:33;;;;;;;;;;;16.90;99.90;;;16.30;100.00;97432.16;5028653;28;20122;-64
2022/07/29 01:30:02;;;;;;;4.20;1.38;;;16.90;99.90;;;16.21;100.00;97439.81;5063068;28;20373;-65
2022/07/29 01:32:36;;;;;;;4.32;1.95;;;16.90;99.90;;;16.36;100.00;97423.06;5063143;28;20047;-65
2022/07/29 01:35:12;;;;;;;3.43;1.30;;;17.00;99.90;;;16.28;100.00;97422.75;5061497;28;20139;-65
2022/07/29 01:38:12;;;;;;;3.80;1.80;;;17.00;99.90;;;16.40;100.00;97421.06;5076929;28;20838;-65
2022/07/29 01:40:51;;;;;;;3.25;1.40;;;17.00;99.90;;;16.36;100.00;97403.91;5060453;28;20177;-65
2022/07/29 01:43:32;;;;;;;5.13;1.30;;;17.00;99.90;;;16.44;100.00;97399.78;5059869;28;20539;-65
2022/07/29 01:46:05;;;;;;;5.22;1.70;;;17.10;99.90;;;16.52;100.00;97391.41;5057926;28;20072;-65
2022/07/29 01:48:56;;;;;;;4.78;1.45;;;17.10;99.90;;;16.54;100.00;97394.75;5065026;28;20053;-64
2022/07/29 01:51:36;;;;;;;3.05;1.60;;;17.10;99.90;;;16.46;100.00;97394.44;5059559;28;20048;-65
2022/07/29 01:54:21;;;;;;;3.15;1.73;;;17.10;99.90;;;16.41;100.00;97389.53;5062302;28;20822;-65
2022/07/29 01:56:52;;;;;;;5.13;1.88;;;17.10;99.90;;;16.38;100.00;97402.84;5059448;28;20155;-65
2022/07/29 01:59:20;;;;;;;2.92;1.42;;;17.10;99.90;;;16.22;100.00;97410.09;5063947;28;20044;-64
2022/07/29 02:01:50;;;;;;;3.15;1.45;;;17.10;99.90;;;16.30;100.00;97403.34;5076586;28;20044;-65
2022/07/29 02:04:21;;;;;;;6.63;2.08;;;17.00;99.90;;;16.14;100.00;97415.81;5073079;28;20048;-65
2022/07/29 02:07:02;;;;;;;4.70;1.83;;;16.90;99.90;;;16.16;100.00;97418.34;5076712;28;20067;-63
2022/07/29 02:09:31;;;;;;;5.00;1.90;;;16.90;99.90;;;16.21;100.00;97409.22;5063261;28;20127;-64
2022/07/29 02:12:01;;;;;;;4.15;1.30;;;16.90;99.90;;;16.23;100.00;97411.75;5057937;28;20531;-63
2022/07/29 02:14:39;;;;;;;3.97;1.58;;;16.90;99.90;;;16.12;100.00;97409.84;5057600;28;20071;-62
2022/07/29 02:17:06;;;;;;;7.35;1.70;;;16.90;99.90;;;16.10;100.00;97411.72;5076068;28;20040;-64
2022/07/29 02:19:34;;;;;;;4.78;1.63;;;16.80;99.90;;;16.02;100.00;97412.25;5071251;28;20056;-63
2022/07/29 02:22:02;;;;;;;3.55;1.80;;;16.80;99.90;;;15.99;100.00;97412.47;5074083;28;20047;-63
2022/07/29 02:24:31;;;;;;;4.68;1.92;;;16.70;99.90;;;15.93;100.00;97415.50;5060527;28;20099;-63
2022/07/29 02:27:00;;;;;;;2.13;1.35;;;16.70;99.90;;;16.01;100.00;97410.59;5071571;28;20091;-63
2022/07/29 02:29:30;;;;;;;6.15;1.63;;;16.60;99.90;;;15.92;100.00;97411.22;5078333;28;20135;-64
2022/07/29 02:31:59;;;;;;;4.30;1.83;;;16.70;99.90;;;15.95;100.00;97415.41;5053805;28;20152;-62
2022/07/29 02:34:28;;;;;;;4.57;1.50;;;16.60;99.90;;;15.82;100.00;97420.59;5075633;28;20052;-63
2022/07/29 02:36:56;;;;;;;4.15;1.58;;;16.60;99.90;;;15.77;100.00;97428.75;5051074;28;20147;-63
2022/07/29 02:39:25;;;;;;;3.33;1.88;;;16.60;99.90;;;15.71;100.00;97426.53;5049902;28;20159;-64
2022/07/29 02:41:58;;;;;;;4.50;1.65;;;16.50;99.90;;;15.68;100.00;97419.69;5075937;28;20167;-62
2022/07/29 02:44:26;;;;;;;3.85;1.80;;;16.40;99.90;;;15.46;100.00;97424.66;5075917;28;20079;-64
2022/07/29 02:47:16;;;;;;;6.57;2.08;;;16.30;99.90;;;15.40;100.00;97436.34;5078848;28;20409;-64
2022/07/29 02:49:48;;;;;;;;;;;;;;;15.35;100.00;97427.97;5057942;28;20072;-63
2022/07/29 02:52:47;;;;;;;4.20;1.38;;;16.20;99.90;;;15.45;100.00;97425.59;5074473;28;19934;-62
2022/07/29 02:55:21;;;;;;;3.42;1.30;;;;;;;15.46;100.00;97420.28;5073326;28;21861;-63
2022/07/29 02:57:53;;;;;;;3.40;1.42;;;;;;;15.41;100.00;97421.50;5073543;28;20054;-64
2022/07/29 03:00:27;;;;;;;3.50;1.50;;;;;;;15.23;100.00;97426.13;5059754;28;20076;-64
2022/07/29 03:02:58;;;;;;;;;;;;;;;15.15;100.00;97447.53;5078225;28;20079;-66
2022/07/29 03:05:27;;;;;;;4.10;1.50;;;;;;;15.21;100.00;97441.06;5073570;28;19998;-63
2022/07/29 03:08:02;;;;;;;5.00;1.67;;;16.00;99.90;;;15.11;100.00;97456.50;5056485;28;20143;-63
2022/07/29 03:10:31;;;;;;;6.38;1.88;;;;;;;15.03;100.00;97453.56;5060289;28;20048;-63
2022/07/29 03:12:59;;;;;;;5.55;1.80;;;;;;;14.93;100.00;97448.03;5074760;28;20147;-63
2022/07/29 03:15:26;;;;;;;5.88;1.70;;;;;;;14.98;100.00;97438.13;5070390;28;20421;-63
2022/07/29 03:17:57;;;;;;;5.15;1.70;;;;;;;14.97;100.00;97435.63;5060833;28;20052;-64
2022/07/29 03:20:32;;;;;;;7.72;1.95;;;;;;;14.85;100.00;97439.84;5061205;28;20595;-64
2022/07/29 03:22:59;;;;;;;6.35;2.08;;;15.70;99.90;;;14.72;100.00;97444.97;5071539;28;20056;-64
2022/07/29 03:25:27;;;;;;;7.93;1.60;;;15.60;99.90;;;14.60;100.00;97456.19;5075561;28;20039;-64
2022/07/29 03:27:54;;;;;;;4.10;1.80;;;15.60;99.90;;;14.62;100.00;97463.00;5070846;28;20087;-63
2022/07/29 03:30:21;;;;;;;5.72;2.00;;;15.50;99.90;;;14.64;100.00;97462.88;5073155;28;20374;-63
2022/07/29 03:32:51;;;;;;;4.57;1.88;;;15.50;99.90;;;14.58;100.00;97464.13;5076720;28;20044;-64
2022/07/29 03:35:20;;;;;;;6.88;1.92;;;15.40;99.90;;;14.53;100.00;97460.06;5073852;28;20051;-63
2022/07/29 03:37:47;;;;;;;7.30;2.33;;;15.40;99.90;;;14.29;100.00;97454.53;5072075;28;20483;-63
2022/07/29 03:40:25;;;;;;;6.82;1.90;;;15.10;99.90;;;14.31;100.00;97456.13;5071738;28;20044;-64
2022/07/29 03:42:55;;;;;;;8.13;2.30;;;15.10;99.90;;;14.19;100.00;97464.69;5062713;28;20048;-65
2022/07/29 03:45:23;;;;;;;7.03;1.98;;;15.00;99.90;;;14.19;100.00;97464.69;5058319;28;20580;-64
2022/07/29 03:47:56;;;;;;;4.82;1.90;;;15.00;99.90;;;14.27;100.00;97469.47;5059674;28;20135;-64
2022/07/29 03:50:30;;;;;;;9.35;2.30;;;15.00;99.90;;;14.30;100.00;97467.53;5077723;28;20049;-64
2022/07/29 03:52:57;;;;;;;3.80;2.10;;;15.10;99.90;;;14.26;100.00;97462.56;5075381;28;20147;-63
2022/07/29 03:55:26;;;;;;;5.07;1.92;;;15.10;99.90;;;14.27;100.00;97459.03;5060033;28;20432;-63
2022/07/29 03:57:55;;;;;;;4.05;1.80;;;15.10;99.90;;;14.29;100.00;97462.38;5060632;28;20122;-63
2022/07/29 04:00:24;;;;;;;5.15;1.77;;;15.10;99.90;;;14.33;100.00;97464.72;5056487;28;20550;-63
2022/07/29 04:02:51;;;;;;;3.55;1.63;;;15.10;99.90;;;14.16;100.00;97459.66;5059259;28;20127;-64
2022/07/29 04:05:19;;;;;;;4.60;1.50;;;15.10;99.90;;;14.27;100.00;97469.47;5075988;28;20060;-64
2022/07/29 04:07:49;;;;;;;4.47;1.77;;;15.10;99.90;;;13.90;100.00;97463.78;5072125;28;20049;-63
2022/07/29 04:10:17;;;;;;;3.95;2.20;;;15.10;99.90;;;14.08;100.00;97474.94;5071797;28;20159;-64
2022/07/29 04:12:59;;;;;;;7.25;2.42;;;15.00;99.90;;;14.01;100.00;97479.66;5078103;28;20490;-63
2022/07/29 04:15:28;;;;;;;9.07;2.60;;;14.90;99.90;;;14.01;100.00;97479.66;5073391;28;20054;-64
2022/07/29 04:17:58;;;;;;;3.95;1.92;;;14.90;99.90;;;14.11;100.00;97480.78;5071469;28;20040;-64
2022/07/29 04:20:25;;;;;;;4.45;1.65;;;14.90;99.90;;;14.15;100.00;97489.31;5063241;28;20143;-64
2022/07/29 04:22:52;;;;;;;4.20;2.20;;;15.00;99.90;;;14.16;100.00;97497.06;5072282;28;20063;-64
2022/07/29 04:25:19;;;;;;;2.90;1.60;;;15.10;99.90;;;14.40;100.00;97497.38;5074070;28;20139;-64
2022/07/29 04:28:02;;;;;;;5.85;2.25;;;15.10;99.90;;;14.31;100.00;97503.13;5077977;28;20111;-64
2022/07/29 04:30:30;;;;;;;5.75;1.80;;;15.10;99.90;;;14.32;100.00;97517.88;5079716;28;20052;-64
2022/07/29 04:32:58;;;;;;;4.57;1.83;;;15.20;99.90;;;14.47;100.00;97510.91;5076356;28;20048;-64
2022/07/29 04:35:25;;;;;;;4.88;1.95;;;15.30;99.90;;;14.41;100.00;97504.28;5078166;28;20045;-63
2022/07/29 04:37:52;;;;;;;3.53;1.60;;;15.40;99.90;;;14.54;100.00;97503.53;5075821;28;20045;-64
2022/07/29 04:40:19;;;;;;;6.63;1.85;;;15.40;99.90;;;14.49;100.00;97503.81;5075871;28;20047;-64
2022/07/29 04:42:46;;;;;;;4.95;2.10;;;15.40;99.90;;;14.53;100.00;97505.31;5081271;28;20135;-64
2022/07/29 04:45:15;;;;;;;6.47;1.90;;;15.40;99.90;;;14.54;100.00;97504.41;5078153;28;20099;-64
2022/07/29 04:47:48;;;;;;;3.30;2.25;;;15.30;99.90;;;14.46;100.00;97508.38;5076867;28;20063;-64
2022/07/29 04:50:16;;;;;;;4.43;1.80;;;15.40;99.90;;;14.46;100.00;97506.63;5074984;28;20142;-64
2022/07/29 04:52:43;;;;;;;4.57;1.73;;;15.40;99.90;;;14.64;100.00;97507.28;5073801;28;20170;-63
2022/07/29 04:55:10;;;;;;;4.15;1.92;;;15.50;99.90;;;14.62;100.00;97507.41;5073441;28;20067;-63
2022/07/29 04:57:37;;;;;;;7.95;2.25;;;15.40;99.90;;;14.57;100.00;97506.00;5076849;28;20048;-64
2022/07/29 05:00:06;;;;;;;6.38;2.33;;;15.50;99.90;;;14.66;100.00;97515.06;5061430;28;20432;-64
2022/07/29 05:02:33;;;;;;;6.32;1.92;;;15.50;99.90;;;14.68;100.00;97518.41;5075506;28;20044;-64
2022/07/29 05:05:00;;;;;;;5.93;1.70;;;15.60;99.90;;;14.97;100.00;97506.19;5075603;28;20047;-63
2022/07/29 05:07:26;;;;;;;4.68;2.00;;;15.60;99.90;;;14.80;100.00;97515.91;5075790;28;20040;-63
2022/07/29 05:09:56;;;;;;;6.60;2.70;;;15.70;99.90;;;14.86;100.00;97517.31;5077461;28;20045;-64
2022/07/29 05:12:24;;;;;;;4.75;1.92;;;15.70;99.90;;;15.09;100.00;97523.72;5079809;28;20375;-64
2022/07/29 05:14:53;;;;;;;10.25;2.00;;;15.90;99.90;;;15.29;100.00;97511.22;5074709;28;20161;-64
2022/07/29 05:17:20;;;;;;;8.32;2.35;;;16.10;99.90;;;15.44;100.00;97510.22;5072571;28;20127;-64
2022/07/29 05:19:47;;;;;;;4.40;1.90;;;16.20;99.90;;;15.62;100.00;97497.75;5073884;28;20516;-64
2022/07/29 05:22:14;;;;;;;8.30;2.50;;;16.40;99.90;;;15.73;100.00;97494.47;5074482;28;20490;-65
2022/07/29 05:24:41;;;;;;;5.18;2.28;;;16.50;99.90;;;15.92;100.00;97491.50;5076946;28;20083;-65
2022/07/29 05:27:08;;;;;;;4.28;1.95;;;16.60;99.90;;;16.02;100.00;97489.97;5073966;28;20585;-65
2022/07/29 05:29:44;;;;;;;3.75;1.92;;;16.80;99.90;;;16.17;100.00;97499.44;5075228;28;20134;-65
2022/07/29 05:32:13;;;;;;;6.95;2.30;;;17.00;99.90;;;16.34;100.00;97518.41;5079270;28;20064;-65
2022/07/29 05:34:41;;;;;;;6.75;2.22;;;17.20;99.90;;;16.49;100.00;97520.84;5064863;28;20139;-64
2022/07/29 05:37:19;;;;;;;4.03;2.28;;;17.30;99.90;;;16.70;100.00;97515.09;5063980;28;20168;-64
2022/07/29 05:39:46;;;;;;;4.43;1.83;;;17.60;99.90;;;16.93;100.00;97503.88;5075071;28;20100;-65
2022/07/29 05:42:24;;;;;;;4.20;1.70;;;17.80;99.90;;;17.40;100.00;97498.00;5076814;28;20047;-65
2022/07/29 05:44:52;;;;;;;3.42;1.80;;;18.10;99.90;;;17.53;100.00;97488.31;5076681;28;20123;-65
2022/07/29 05:47:19;;;;;;;3.50;2.28;;;18.30;99.90;;;17.50;100.00;97515.59;5075152;28;20247;-65
2022/07/29 05:49:46;;;;;;;4.35;2.28;;;18.40;99.90;;;17.64;100.00;97512.00;5075013;28;20514;-65
2022/07/29 05:52:13;;;;;;;4.32;2.03;;;18.60;99.90;;;17.78;100.00;97501.31;5074159;28;20064;-66
2022/07/29 05:54:40;;;;;;;3.58;1.80;;;18.70;99.90;;;17.84;100.00;97484.31;5082307;28;20152;-65
2022/07/29 05:57:07;;;;;;;3.45;1.58;;;18.70;99.90;;;17.98;100.00;97463.13;5073445;28;20048;-64
2022/07/29 05:59:37;;;;;;;4.82;1.80;;;18.80;99.90;;;18.19;100.00;97472.97;5082957;28;20480;-66
2022/07/29 06:02:05;;;;;;;5.68;1.77;;;18.80;99.90;;;17.91;100.00;97496.03;5078068;28;20407;-65
2022/07/29 06:04:33;;;;;;;6.15;1.88;;;18.90;99.90;;;18.01;100.00;97514.56;5077574;28;20051;-65
2022/07/29 06:07:01;;;;;;;3.58;1.40;;;18.90;99.90;;;18.08;100.00;97507.91;5073672;28;20048;-65
2022/07/29 06:09:28;;;;;;;9.50;1.95;;;19.00;99.90;;;18.38;100.00;97496.06;5081926;28;20044;-65
2022/07/29 06:11:57;;;;;;;6.50;2.08;;;19.10;99.90;;;18.33;100.00;97493.78;5064176;28;20102;-65
2022/07/29 06:14:24;;;;;;;4.68;1.80;;;19.20;99.90;;;18.57;100.00;97480.59;5079018;28;20316;-66
2022/07/29 06:16:52;;;;;;;6.03;1.80;;;19.50;99.90;;;18.84;100.00;97471.56;5073520;28;20084;-65
2022/07/29 06:19:19;;;;;;;7.72;1.70;;;19.70;99.90;;;18.99;100.00;97461.63;5078188;28;20056;-65
2022/07/29 06:21:47;;;;;;;3.53;1.50;;;19.90;99.90;;;19.13;100.00;97455.25;5075923;28;20072;-65
2022/07/29 06:24:15;;;;;;;5.15;1.80;;;20.00;99.90;;;19.16;100.00;97437.44;5084844;28;20049;-65
2022/07/29 06:26:43;;;;;;;3.80;1.70;;;20.10;99.90;;;19.31;100.00;97427.47;5066544;28;20139;-65
2022/07/29 06:29:10;;;;;;;4.30;1.73;;;20.20;99.90;;;19.48;100.00;97426.13;5076086;28;20056;-65
2022/07/29 06:31:38;;;;;;;5.85;1.52;;;20.40;99.90;;;19.55;100.00;97422.03;5077248;28;20044;-66
2022/07/29 06:34:06;;;;;;;2.95;1.42;;;20.60;99.90;;;19.98;100.00;97415.03;5075243;28;20465;-65
2022/07/29 06:36:36;;;;;;;4.60;1.27;;;20.80;99.90;;;20.11;100.00;97422.75;5077127;28;20048;-65
2022/07/29 06:39:08;;;;;;;5.43;1.48;;;21.00;99.90;;;20.23;100.00;97424.34;5069153;28;20166;-62
2022/07/29 06:41:37;;;;;;;;;;;21.10;99.90;;;20.31;100.00;97418.44;5078411;28;20089;-65
2022/07/29 06:44:04;;;;;;;3.10;1.10;;;21.10;99.90;;;20.55;100.00;97413.72;5075424;28;19939;-65
2022/07/29 06:46:32;;;;;;;4.20;1.23;;;21.20;99.90;;;20.68;100.00;97416.16;5078934;28;20084;-66
2022/07/29 06:49:01;;;;;;;2.80;1.20;;;21.30;99.90;;;20.94;100.00;97406.00;5077605;28;20204;-66
2022/07/29 06:51:29;;;;;;;3.17;1.10;;;21.50;99.90;;;21.12;100.00;97405.31;5077931;28;20055;-66
2022/07/29 06:53:57;;;;;;;2.92;1.15;;;21.80;99.90;;;20.96;100.00;97406.69;5075349;28;20123;-65
2022/07/29 06:56:41;;;;;;;5.00;1.20;;;21.90;99.90;;;20.84;100.00;97418.31;5078352;28;20459;-66
2022/07/29 06:59:10;;;;;;;5.30;1.42;;;21.80;99.90;;;20.59;100.00;97423.06;5076915;28;20052;-65
2022/07/29 07:01:39;;;;;;;3.95;1.30;;;21.70;99.90;;;20.75;100.00;97424.38;5070495;28;20072;-64
2022/07/29 07:04:08;;;;;;;3.25;1.40;;;21.60;99.90;;;20.41;100.00;97427.22;5074461;28;20054;-64
2022/07/29 07:06:36;;;;;;;5.10;1.42;;;21.60;99.90;;;20.21;100.00;97432.41;5081731;28;20059;-66
2022/07/29 07:09:04;;;;;;;5.47;1.58;;;21.70;99.90;;;20.32;100.00;97441.19;5053606;28;20117;-66
2022/07/29 07:11:31;;;;;;;3.38;1.50;;;21.40;99.90;;;20.33;100.00;97451.63;5073304;28;20045;-66
2022/07/29 07:13:58;;;;;;;6.40;1.75;;;21.40;99.90;;;20.43;100.00;97449.84;5057821;28;20075;-65
2022/07/29 07:16:29;;;;;;;4.07;1.65;;;21.40;99.90;;;20.57;100.00;97448.75;5075437;28;20517;-65
2022/07/29 07:18:56;;;;;;;5.00;1.50;;;21.50;99.90;;;20.80;100.00;97448.53;5076461;28;20048;-66
2022/07/29 07:21:23;;;;;;;6.35;1.65;;;21.70;99.90;;;21.10;100.00;97448.53;5080171;28;20075;-65
2022/07/29 07:23:50;;;;;;;9.73;1.65;;;21.90;99.90;;;21.24;100.00;97446.50;5074629;28;20158;-66
2022/07/29 07:26:17;;;;;;;3.65;1.90;;;22.30;99.90;;;21.29;100.00;97441.63;5075392;28;20080;-63
2022/07/29 07:28:44;;;;;;;5.22;1.20;;;22.50;99.90;;;21.32;100.00;97438.72;5073101;28;20058;-66
2022/07/29 07:31:12;;;;;;;4.60;1.35;;;22.60;99.90;;;21.54;100.00;97439.47;5073722;28;20491;-65
2022/07/29 07:33:39;;;;;;;5.70;1.50;;;22.60;99.90;;;21.55;100.00;97441.13;5077141;28;20105;-66
2022/07/29 07:36:06;;;;;;;5.00;1.20;;;22.60;99.90;;;21.29;100.00;97439.00;5077252;28;20655;-66
2022/07/29 07:38:32;;;;;;;4.90;1.35;;;22.60;99.90;;;21.48;100.00;97447.00;5075763;28;20048;-63
2022/07/29 07:41:00;;;;;;;3.10;1.42;;;22.60;99.90;;;21.53;100.00;97436.00;5077107;28;20087;-65
2022/07/29 07:43:27;;;;;;;6.13;1.80;;;22.70;99.90;;;21.10;100.00;97440.63;5080048;28;20047;-62
2022/07/29 07:45:54;;;;;;;4.97;1.90;;;22.40;99.90;;;20.92;100.00;97444.03;5075894;28;20048;-66
2022/07/29 07:48:21;;;;;;;4.85;1.98;;;22.20;99.90;;;20.86;100.00;97455.94;5077004;28;20056;-65
2022/07/29 07:50:49;;;;;;;4.22;1.65;;;22.10;99.90;;;21.00;100.00;97460.84;5077236;28;20128;-65
2022/07/29 07:53:16;;;;;;;6.05;1.67;;;22.10;99.90;;;20.83;100.00;97458.84;5075623;28;20052;-65
2022/07/29 07:55:43;;;;;;;9.45;2.17;;;22.10;99.90;;;21.04;100.00;97467.53;5072308;28;20147;-66
2022/07/29 07:58:30;;;;;;;5.40;1.90;;;22.10;99.90;;;20.96;100.00;97459.47;5078221;28;20075;-66
2022/07/29 08:00:57;;;;;;;6.80;1.77;;;22.10;99.90;;;21.10;100.00;97461.72;5073932;28;20045;-65
2022/07/29 08:03:24;;;;;;;4.25;1.95;;;22.00;99.90;;;21.07;100.00;97469.91;5085128;28;20059;-65
2022/07/29 08:05:51;;;;;;;6.97;2.35;;;22.00;99.90;;;20.97;100.00;97468.22;5081842;28;20044;-66
2022/07/29 08:08:18;;;;;;;4.32;2.05;;;21.90;99.90;;;20.97;100.00;97470.84;5080747;28;20473;-65
2022/07/29 08:10:52;;;;;;;4.28;1.92;;;21.90;99.90;;;21.15;100.00;97471.06;5079641;28;20632;-63
2022/07/29 08:13:27;;;;;;;4.13;1.63;;;22.00;99.90;;;20.99;100.00;97477.66;5080006;28;20048;-66
2022/07/29 08:15:57;;;;;;;2.92;1.55;;;22.10;99.90;;;21.34;100.00;97470.25;5079809;28;20123;-62
2022/07/29 08:18:27;;;;;;;4.28;1.70;;;22.10;99.90;;;21.42;100.00;97468.66;5085618;28;20516;-65
2022/07/29 08:20:54;;;;;;;4.07;1.73;;;22.30;99.90;;;21.82;100.00;97473.00;5079745;28;20210;-65
2022/07/29 08:23:22;;;;;;;3.45;1.52;;;22.60;99.90;;;22.01;100.00;97458.97;5079417;28;20048;-62
2022/07/29 08:25:51;;;;;;;6.25;1.38;;;22.80;99.90;;;22.05;100.00;97460.31;5065886;28;20446;-62
2022/07/29 08:28:20;;;;;;;4.93;1.95;;;23.00;99.90;;;22.34;100.00;97452.41;5077474;28;20079;-63
2022/07/29 08:30:52;;;;;;;4.05;1.80;;;23.30;99.90;;;22.76;100.00;97454.66;5075474;28;20041;-66
2022/07/29 08:33:19;;;;;;;4.47;1.42;;;23.60;99.90;;;22.87;100.00;97452.81;5062115;28;20466;-63
2022/07/29 08:35:46;;;;;;;4.10;1.30;;;23.80;99.90;;;23.07;100.00;97453.59;5078126;28;20128;-64
2022/07/29 08:38:13;;;;;;;4.30;1.75;;;24.00;99.90;;;23.26;100.00;97448.19;5077753;28;20132;-63
2022/07/29 08:40:40;;;;;;;6.00;1.92;;;24.20;99.90;;;22.96;100.00;97447.47;5076808;28;20087;-63
2022/07/29 08:43:08;;;;;;;4.18;1.50;;;24.30;99.90;;;23.24;100.00;97450.16;5059751;28;20602;-63
2022/07/29 08:45:47;;;;;;;6.47;1.50;;;24.20;99.90;;;23.14;100.00;97449.38;5078617;28;20141;-62
2022/07/29 08:48:18;;;;;;;3.88;1.50;;;24.40;99.90;;;23.29;100.00;97445.25;5079055;28;20162;-63
2022/07/29 08:50:47;;;;;;;3.55;1.35;;;24.40;99.90;;;24.04;100.00;97447.66;5072904;28;20739;-63
2022/07/29 08:53:17;;;;;;;4.82;1.52;;;24.80;99.90;;;24.57;100.00;97430.81;5078747;28;20202;-63
2022/07/29 08:55:54;;;;;;;4.05;1.38;;;;;;;24.62;100.00;97440.97;5075883;28;20084;-64
2022/07/29 08:58:24;;;;;;;6.10;1.70;;;;;;;24.01;100.00;97442.66;5074592;28;20060;-64
2022/07/29 09:00:56;;;;;;;5.13;1.63;;;;;;;23.73;100.00;97428.63;5059284;28;20089;-63
2022/07/29 09:03:29;;;;;;;5.78;1.40;;;;;;;24.96;100.00;97429.53;5080602;28;20481;-64
2022/07/29 09:05:59;;;;;;;3.10;1.30;;;25.90;99.90;;;25.81;100.00;97424.09;5081308;28;20434;-63
2022/07/29 09:08:28;;;;;;;7.22;2.00;;;;;;;25.55;100.00;97418.94;5073716;28;20057;-63
2022/07/29 09:10:59;;;;;;;4.53;1.60;;;;;;;24.91;100.00;97429.19;5057795;28;20044;-63
2022/07/29 09:13:32;;;;;;;4.28;1.77;;;;;;;25.07;100.00;97421.28;5074684;28;20609;-63
2022/07/29 09:16:52;;;;;;;7.70;1.40;;;;;;;27.03;100.00;97414.31;5071595;28;20139;-63
2022/07/29 09:19:26;;;;;;;3.70;1.33;;;;;;;26.62;100.00;97433.09;5081969;28;20054;-64
2022/07/29 09:22:13;;;;;;;4.93;1.17;;;;;;;25.28;100.00;97428.84;5077393;28;20044;-63
2022/07/29 09:24:47;;;;;;;4.22;1.58;;;;;;;24.58;100.00;97435.13;5060313;28;20062;-64
2022/07/29 09:27:26;;;;;;;4.70;1.33;;;;;;;25.51;100.00;97429.06;5059198;28;20059;-64
2022/07/29 09:30:22;;;;;;;5.10;1.63;;;;;;;24.39;100.00;97436.16;5066148;28;20063;-64
2022/07/29 09:33:08;;;;;;;4.57;1.52;;;;;;;24.08;100.00;97451.66;5076822;28;20066;-63
2022/07/29 09:35:43;;;;;;;7.35;2.05;;;;;;;23.07;100.00;97456.25;5057616;28;20136;-63
2022/07/29 09:38:56;;;;;;;5.72;1.48;;;;;;;23.01;100.00;97459.47;5018226;28;20128;-64
2022/07/29 09:41:43;;;;;;;6.75;1.60;;;;;;;23.00;100.00;97452.50;5016891;28;20052;-64
2022/07/29 09:44:40;;;;;;;4.43;1.83;;;;;;;23.22;100.00;97443.31;5024228;28;20145;-64
2022/07/29 09:47:21;;;;;;;3.15;1.60;;;;;;;23.53;100.00;97430.59;5022279;28;20136;-64
2022/07/29 09:50:04;;;;;;;7.07;1.60;;;;;;;23.48;100.00;97440.81;5012484;28;20073;-64
2022/07/29 09:52:41;;;;;;;5.65;1.60;;;;;;;23.85;100.00;97439.88;5020338;28;20038;-65
2022/07/29 09:55:13;;;;;;;3.75;1.38;;;;;;;24.70;100.00;97438.38;5018890;28;20081;-64
2022/07/29 09:57:50;;;;;;;5.00;1.20;;;;;;;25.88;100.00;97430.44;5016379;28;20135;-64
2022/07/29 10:00:19;;;;;;;2.88;1.02;;;;;;;26.52;100.00;97435.06;5016912;28;20046;-65
2022/07/29 10:02:48;;;;;;;4.10;1.60;;;;;;;27.10;100.00;97429.44;5013424;28;20049;-66
2022/07/29 10:05:24;;;;;;;7.60;1.50;;;;;;;27.35;100.00;97432.00;5014188;28;20714;-66
2022/07/29 10:07:56;;;;;;;4.05;1.13;;;;;;;27.76;100.00;97431.75;5018734;28;20166;-66
2022/07/29 10:10:24;;;;;;;5.72;1.27;;;;;;;28.64;100.00;97432.19;5020413;28;20065;-66
2022/07/29 10:12:51;;;;;;;3.70;1.13;;;;;;;28.35;100.00;97428.44;5021267;28;20132;-66
2022/07/29 10:15:20;;;;;;;3.13;1.13;;;;;;;27.23;100.00;97442.22;5021580;28;20085;-66
2022/07/29 10:17:47;;;;;;;3.92;1.13;;;;;;;29.10;100.00;97422.19;5019856;28;20432;-66
2022/07/29 10:20:16;;;;;;;4.22;1.20;;;;;;;29.95;100.00;97425.19;5021944;28;20096;-66
2022/07/29 10:22:43;;;;;;;3.08;0.95;;;29.60;94.40;;;30.66;100.00;97427.81;5018204;28;20049;-66
2022/07/29 10:25:20;;;;;;;9.30;1.20;;;;;;;31.20;100.00;97419.03;5011797;28;20054;-65
2022/07/29 10:27:48;;;;;;;4.70;1.30;;;;;;;29.17;100.00;97417.75;5023258;28;20597;-66
2022/07/29 10:30:17;;;;;;;4.25;1.30;;;;;;;28.46;100.00;97419.16;5018991;28;20136;-65
2022/07/29 10:33:27;;;;;;;4.28;1.10;;;;;;;30.05;100.00;97414.13;5021172;28;20144;-65
2022/07/29 10:35:57;;;;;;;2.78;1.13;;;;;;;30.93;100.00;97414.56;5023955;28;20144;-65
2022/07/29 10:38:47;;;;;;;5.15;1.10;;;;;;;30.70;100.00;97410.31;5020181;28;20133;-65
2022/07/29 10:41:26;;;;;;;3.33;1.23;;;;;;;28.63;100.00;97414.53;5019698;28;20156;-65
2022/07/29 10:44:20;;;;;;;3.85;1.17;;;;;;;29.12;100.00;97411.28;5018140;28;20443;-65
2022/07/29 10:46:51;;;;;;;3.03;1.27;;;;;;;27.87;100.00;97404.69;5023571;28;20067;-65